sensor_id;sensor_type;location;lat;lon;timestamp;temperature;humidity
68274;SHT30;55104;47.356;19.448;2022-08-19T00:02:36;24.99;55.13
68274;SHT30;55104;47.356;19.448;2022-08-19T00:05:50;24.92;55.26
68274;SHT30;55104;47.356;19.448;2022-08-19T00:08:53;24.84;55.62
68274;SHT30;55104;47.356;19.448;2022-08-19T00:11:56;24.80;55.68
68274;SHT30;55104;47.356;19.448;2022-08-19T00:14:59;24.77;55.89
68274;SHT30;55104;47.356;19.448;2022-08-19T00:18:01;24.76;55.89
68274;SHT30;55104;47.356;19.448;2022-08-19T00:21:03;24.83;55.77
68274;SHT30;55104;47.356;19.448;2022-08-19T00:24:10;24.73;56.06
68274;SHT30;55104;47.356;19.448;2022-08-19T00:27:13;24.74;56.09
68274;SHT30;55104;47.356;19.448;2022-08-19T00:30:28;24.63;56.42
68274;SHT30;55104;47.356;19.448;2022-08-19T00:33:31;24.59;56.64
68274;SHT30;55104;47.356;19.448;2022-08-19T00:36:35;24.52;56.58
68274;SHT30;55104;47.356;19.448;2022-08-19T00:39:38;24.39;57.09
68274;SHT30;55104;47.356;19.448;2022-08-19T00:42:41;24.37;57.01
68274;SHT30;55104;47.356;19.448;2022-08-19T00:45:43;24.28;57.35
68274;SHT30;55104;47.356;19.448;2022-08-19T00:48:45;24.25;57.40
68274;SHT30;55104;47.356;19.448;2022-08-19T00:51:51;24.21;57.63
68274;SHT30;55104;47.356;19.448;2022-08-19T00:54:55;24.16;57.67
68274;SHT30;55104;47.356;19.448;2022-08-19T00:58:02;24.15;57.70
68274;SHT30;55104;47.356;19.448;2022-08-19T01:01:05;24.12;57.77
68274;SHT30;55104;47.356;19.448;2022-08-19T01:04:09;24.12;57.83
68274;SHT30;55104;47.356;19.448;2022-08-19T01:07:12;24.08;57.97
68274;SHT30;55104;47.356;19.448;2022-08-19T01:10:20;24.12;57.87
68274;SHT30;55104;47.356;19.448;2022-08-19T01:13:27;24.04;58.25
68274;SHT30;55104;47.356;19.448;2022-08-19T01:16:50;24.00;58.16
68274;SHT30;55104;47.356;19.448;2022-08-19T01:19:56;23.97;58.43
68274;SHT30;55104;47.356;19.448;2022-08-19T01:22:58;23.88;58.68
68274;SHT30;55104;47.356;19.448;2022-08-19T01:26:01;23.87;58.79
68274;SHT30;55104;47.356;19.448;2022-08-19T01:29:03;23.87;59.14
68274;SHT30;55104;47.356;19.448;2022-08-19T01:32:07;23.77;59.24
68274;SHT30;55104;47.356;19.448;2022-08-19T01:35:30;23.71;59.46
68274;SHT30;55104;47.356;19.448;2022-08-19T01:38:35;23.61;59.95
68274;SHT30;55104;47.356;19.448;2022-08-19T01:41:46;23.60;60.01
68274;SHT30;55104;47.356;19.448;2022-08-19T01:44:48;23.53;60.17
68274;SHT30;55104;47.356;19.448;2022-08-19T01:47:50;23.60;60.08
68274;SHT30;55104;47.356;19.448;2022-08-19T01:51:04;23.54;60.29
68274;SHT30;55104;47.356;19.448;2022-08-19T01:54:07;23.51;60.24
68274;SHT30;55104;47.356;19.448;2022-08-19T01:57:11;23.42;60.51
68274;SHT30;55104;47.356;19.448;2022-08-19T02:00:18;23.40;60.56
68274;SHT30;55104;47.356;19.448;2022-08-19T02:03:20;23.40;60.71
68274;SHT30;55104;47.356;19.448;2022-08-19T02:06:22;23.33;60.88
68274;SHT30;55104;47.356;19.448;2022-08-19T02:09:27;23.30;60.98
68274;SHT30;55104;47.356;19.448;2022-08-19T02:12:29;23.30;60.97
68274;SHT30;55104;47.356;19.448;2022-08-19T02:15:32;23.22;61.28
68274;SHT30;55104;47.356;19.448;2022-08-19T02:18:34;23.16;61.42
68274;SHT30;55104;47.356;19.448;2022-08-19T02:21:36;23.09;61.66
68274;SHT30;55104;47.356;19.448;2022-08-19T02:24:39;22.99;61.91
68274;SHT30;55104;47.356;19.448;2022-08-19T02:27:42;23.02;61.88
68274;SHT30;55104;47.356;19.448;2022-08-19T02:30:44;22.98;62.06
68274;SHT30;55104;47.356;19.448;2022-08-19T02:33:47;22.92;62.26
68274;SHT30;55104;47.356;19.448;2022-08-19T02:36:49;22.90;62.32
68274;SHT30;55104;47.356;19.448;2022-08-19T02:39:53;22.81;62.62
68274;SHT30;55104;47.356;19.448;2022-08-19T02:42:55;22.79;62.50
68274;SHT30;55104;47.356;19.448;2022-08-19T02:45:57;22.78;62.74
68274;SHT30;55104;47.356;19.448;2022-08-19T02:49:02;22.75;62.82
68274;SHT30;55104;47.356;19.448;2022-08-19T02:52:05;22.69;62.96
68274;SHT30;55104;47.356;19.448;2022-08-19T02:55:07;22.69;62.99
68274;SHT30;55104;47.356;19.448;2022-08-19T02:58:09;22.64;63.24
68274;SHT30;55104;47.356;19.448;2022-08-19T03:01:23;22.61;63.44
68274;SHT30;55104;47.356;19.448;2022-08-19T03:04:26;22.53;63.56
68274;SHT30;55104;47.356;19.448;2022-08-19T03:07:28;22.47;63.93
68274;SHT30;55104;47.356;19.448;2022-08-19T03:10:30;22.54;63.69
68274;SHT30;55104;47.356;19.448;2022-08-19T03:13:32;22.53;63.83
68274;SHT30;55104;47.356;19.448;2022-08-19T03:16:41;22.58;63.65
68274;SHT30;55104;47.356;19.448;2022-08-19T03:19:44;22.58;63.62
68274;SHT30;55104;47.356;19.448;2022-08-19T03:22:46;22.58;63.68
68274;SHT30;55104;47.356;19.448;2022-08-19T03:25:51;22.61;63.62
68274;SHT30;55104;47.356;19.448;2022-08-19T03:29:15;22.60;63.65
68274;SHT30;55104;47.356;19.448;2022-08-19T03:32:31;22.63;63.61
68274;SHT30;55104;47.356;19.448;2022-08-19T03:35:34;22.63;63.53
68274;SHT30;55104;47.356;19.448;2022-08-19T03:38:43;22.67;63.47
68274;SHT30;55104;47.356;19.448;2022-08-19T03:41:47;22.65;63.58
68274;SHT30;55104;47.356;19.448;2022-08-19T03:45:11;22.64;63.43
68274;SHT30;55104;47.356;19.448;2022-08-19T03:48:14;22.68;63.29
68274;SHT30;55104;47.356;19.448;2022-08-19T03:51:20;22.71;63.40
68274;SHT30;55104;47.356;19.448;2022-08-19T03:54:31;22.69;63.34
68274;SHT30;55104;47.356;19.448;2022-08-19T03:57:34;22.64;63.55
68274;SHT30;55104;47.356;19.448;2022-08-19T04:00:36;22.65;63.56
68274;SHT30;55104;47.356;19.448;2022-08-19T04:03:39;22.65;63.50
68274;SHT30;55104;47.356;19.448;2022-08-19T04:06:43;22.72;63.37
68274;SHT30;55104;47.356;19.448;2022-08-19T04:09:45;22.68;63.71
68274;SHT30;55104;47.356;19.448;2022-08-19T04:12:47;22.67;63.60
68274;SHT30;55104;47.356;19.448;2022-08-19T04:15:49;22.74;63.44
68274;SHT30;55104;47.356;19.448;2022-08-19T04:18:51;22.72;63.45
68274;SHT30;55104;47.356;19.448;2022-08-19T04:21:54;22.72;63.34
68274;SHT30;55104;47.356;19.448;2022-08-19T04:24:56;22.78;63.29
68274;SHT30;55104;47.356;19.448;2022-08-19T04:27:58;22.85;63.11
68274;SHT30;55104;47.356;19.448;2022-08-19T04:31:00;22.83;63.15
68274;SHT30;55104;47.356;19.448;2022-08-19T04:34:07;22.87;62.97
68274;SHT30;55104;47.356;19.448;2022-08-19T04:37:10;22.87;63.03
68274;SHT30;55104;47.356;19.448;2022-08-19T04:40:13;22.96;62.71
68274;SHT30;55104;47.356;19.448;2022-08-19T04:43:36;23.04;62.45
68274;SHT30;55104;47.356;19.448;2022-08-19T04:46:39;22.98;62.63
68274;SHT30;55104;47.356;19.448;2022-08-19T04:49:52;22.98;62.62
68274;SHT30;55104;47.356;19.448;2022-08-19T04:52:54;23.04;62.43
68274;SHT30;55104;47.356;19.448;2022-08-19T04:55:59;23.05;62.42
68274;SHT30;55104;47.356;19.448;2022-08-19T04:59:02;23.09;62.37
68274;SHT30;55104;47.356;19.448;2022-08-19T05:02:07;23.23;61.82
68274;SHT30;55104;47.356;19.448;2022-08-19T05:05:09;23.27;61.73
68274;SHT30;55104;47.356;19.448;2022-08-19T05:08:18;23.34;61.42
68274;SHT30;55104;47.356;19.448;2022-08-19T05:11:34;23.40;61.34
68274;SHT30;55104;47.356;19.448;2022-08-19T05:14:38;23.49;61.11
68274;SHT30;55104;47.356;19.448;2022-08-19T05:17:41;23.63;60.78
68274;SHT30;55104;47.356;19.448;2022-08-19T05:21:12;23.71;60.53
68274;SHT30;55104;47.356;19.448;2022-08-19T05:24:33;23.75;60.33
68274;SHT30;55104;47.356;19.448;2022-08-19T05:27:58;23.82;60.24
68274;SHT30;55104;47.356;19.448;2022-08-19T05:31:00;23.94;60.00
68274;SHT30;55104;47.356;19.448;2022-08-19T05:34:02;24.02;59.93
68274;SHT30;55104;47.356;19.448;2022-08-19T05:37:18;24.14;59.55
68274;SHT30;55104;47.356;19.448;2022-08-19T05:40:21;24.19;59.04
68274;SHT30;55104;47.356;19.448;2022-08-19T05:43:23;24.36;58.81
68274;SHT30;55104;47.356;19.448;2022-08-19T05:46:25;24.35;58.48
68274;SHT30;55104;47.356;19.448;2022-08-19T05:49:30;24.59;58.16
68274;SHT30;55104;47.356;19.448;2022-08-19T05:52:33;24.67;58.32
68274;SHT30;55104;47.356;19.448;2022-08-19T05:55:35;24.76;57.91
68274;SHT30;55104;47.356;19.448;2022-08-19T05:58:39;24.84;57.70
68274;SHT30;55104;47.356;19.448;2022-08-19T06:01:43;25.01;57.36
68274;SHT30;55104;47.356;19.448;2022-08-19T06:04:46;25.12;57.30
68274;SHT30;55104;47.356;19.448;2022-08-19T06:07:48;25.19;56.56
68274;SHT30;55104;47.356;19.448;2022-08-19T06:10:50;25.39;56.45
68274;SHT30;55104;47.356;19.448;2022-08-19T06:13:53;25.60;55.78
68274;SHT30;55104;47.356;19.448;2022-08-19T06:17:00;25.70;55.50
68274;SHT30;55104;47.356;19.448;2022-08-19T06:20:10;25.93;55.12
68274;SHT30;55104;47.356;19.448;2022-08-19T06:23:13;26.04;54.96
68274;SHT30;55104;47.356;19.448;2022-08-19T06:26:19;26.15;54.72
68274;SHT30;55104;47.356;19.448;2022-08-19T06:29:23;26.32;54.30
68274;SHT30;55104;47.356;19.448;2022-08-19T06:32:25;26.28;54.20
68274;SHT30;55104;47.356;19.448;2022-08-19T06:35:27;26.29;53.84
68274;SHT30;55104;47.356;19.448;2022-08-19T06:38:31;26.46;54.05
68274;SHT30;55104;47.356;19.448;2022-08-19T06:41:36;26.46;53.51
68274;SHT30;55104;47.356;19.448;2022-08-19T06:44:51;26.45;53.49
68274;SHT30;55104;47.356;19.448;2022-08-19T06:47:54;26.73;53.53
68274;SHT30;55104;47.356;19.448;2022-08-19T06:50:57;26.93;52.55
68274;SHT30;55104;47.356;19.448;2022-08-19T06:54:00;27.01;52.22
68274;SHT30;55104;47.356;19.448;2022-08-19T06:57:03;27.17;51.45
68274;SHT30;55104;47.356;19.448;2022-08-19T07:00:06;27.39;51.18
68274;SHT30;55104;47.356;19.448;2022-08-19T07:03:13;27.65;51.01
68274;SHT30;55104;47.356;19.448;2022-08-19T07:06:18;27.72;50.57
68274;SHT30;55104;47.356;19.448;2022-08-19T07:09:43;27.94;51.08
68274;SHT30;55104;47.356;19.448;2022-08-19T07:12:55;28.20;49.72
68274;SHT30;55104;47.356;19.448;2022-08-19T07:15:57;28.29;49.13
68274;SHT30;55104;47.356;19.448;2022-08-19T07:19:00;28.56;48.48
68274;SHT30;55104;47.356;19.448;2022-08-19T07:22:17;28.70;48.47
68274;SHT30;55104;47.356;19.448;2022-08-19T07:25:19;28.88;48.08
68274;SHT30;55104;47.356;19.448;2022-08-19T07:28:33;28.93;47.99
68274;SHT30;55104;47.356;19.448;2022-08-19T07:31:36;28.96;47.45
68274;SHT30;55104;47.356;19.448;2022-08-19T07:34:39;29.04;47.43
68274;SHT30;55104;47.356;19.448;2022-08-19T07:37:43;29.34;47.51
68274;SHT30;55104;47.356;19.448;2022-08-19T07:40:46;29.52;46.52
68274;SHT30;55104;47.356;19.448;2022-08-19T07:43:49;29.59;46.04
68274;SHT30;55104;47.356;19.448;2022-08-19T07:46:54;29.66;45.65
68274;SHT30;55104;47.356;19.448;2022-08-19T07:49:57;29.93;45.88
68274;SHT30;55104;47.356;19.448;2022-08-19T07:53:00;30.23;45.05
68274;SHT30;55104;47.356;19.448;2022-08-19T07:56:03;30.47;44.88
68274;SHT30;55104;47.356;19.448;2022-08-19T07:59:06;30.78;44.91
68274;SHT30;55104;47.356;19.448;2022-08-19T08:02:09;31.12;44.34
68274;SHT30;55104;47.356;19.448;2022-08-19T08:05:11;31.03;42.69
68274;SHT30;55104;47.356;19.448;2022-08-19T08:08:36;31.37;41.95
68274;SHT30;55104;47.356;19.448;2022-08-19T08:12:00;31.50;42.47
68274;SHT30;55104;47.356;19.448;2022-08-19T08:15:23;31.70;42.51
68274;SHT30;55104;47.356;19.448;2022-08-19T08:18:26;31.58;41.88
68274;SHT30;55104;47.356;19.448;2022-08-19T08:21:32;31.82;41.58
68274;SHT30;55104;47.356;19.448;2022-08-19T08:24:34;31.92;41.04
68274;SHT30;55104;47.356;19.448;2022-08-19T08:27:39;32.01;41.29
68274;SHT30;55104;47.356;19.448;2022-08-19T08:30:41;32.02;40.18
68274;SHT30;55104;47.356;19.448;2022-08-19T08:33:46;32.29;39.84
68274;SHT30;55104;47.356;19.448;2022-08-19T08:36:48;32.41;39.68
68274;SHT30;55104;47.356;19.448;2022-08-19T08:39:52;32.56;39.15
68274;SHT30;55104;47.356;19.448;2022-08-19T08:49:43;32.95;38.10
68274;SHT30;55104;47.356;19.448;2022-08-19T08:52:49;33.27;38.65
68274;SHT30;55104;47.356;19.448;2022-08-19T08:55:53;33.11;37.48
68274;SHT30;55104;47.356;19.448;2022-08-19T08:59:10;33.49;36.79
68274;SHT30;55104;47.356;19.448;2022-08-19T09:02:14;33.60;36.97
68274;SHT30;55104;47.356;19.448;2022-08-19T09:05:18;33.70;37.21
68274;SHT30;55104;47.356;19.448;2022-08-19T09:08:34;33.59;36.33
68274;SHT30;55104;47.356;19.448;2022-08-19T09:15:08;34.01;36.04
68274;SHT30;55104;47.356;19.448;2022-08-19T09:18:10;34.22;35.20
68274;SHT30;55104;47.356;19.448;2022-08-19T09:21:21;34.48;34.91
68274;SHT30;55104;47.356;19.448;2022-08-19T09:24:34;34.48;35.10
68274;SHT30;55104;47.356;19.448;2022-08-19T09:27:38;34.56;33.64
68274;SHT30;55104;47.356;19.448;2022-08-19T09:30:44;34.71;34.24
68274;SHT30;55104;47.356;19.448;2022-08-19T09:33:47;34.90;33.79
68274;SHT30;55104;47.356;19.448;2022-08-19T09:36:49;34.96;32.86
68274;SHT30;55104;47.356;19.448;2022-08-19T09:39:55;34.91;33.31
68274;SHT30;55104;47.356;19.448;2022-08-19T09:42:58;34.79;34.03
68274;SHT30;55104;47.356;19.448;2022-08-19T09:46:05;34.91;32.83
68274;SHT30;55104;47.356;19.448;2022-08-19T09:49:08;35.13;34.36
68274;SHT30;55104;47.356;19.448;2022-08-19T09:52:11;35.27;32.65
68274;SHT30;55104;47.356;19.448;2022-08-19T09:55:14;35.13;32.33
68274;SHT30;55104;47.356;19.448;2022-08-19T09:58:18;35.51;32.63
68274;SHT30;55104;47.356;19.448;2022-08-19T10:01:28;35.72;32.55
68274;SHT30;55104;47.356;19.448;2022-08-19T10:04:31;35.66;32.47
68274;SHT30;55104;47.356;19.448;2022-08-19T10:07:51;35.92;31.97
68274;SHT30;55104;47.356;19.448;2022-08-19T10:10:54;35.83;31.97
68274;SHT30;55104;47.356;19.448;2022-08-19T10:13:56;35.85;31.14
68274;SHT30;55104;47.356;19.448;2022-08-19T10:16:58;35.80;31.19
68274;SHT30;55104;47.356;19.448;2022-08-19T10:20:18;36.04;31.45
68274;SHT30;55104;47.356;19.448;2022-08-19T10:23:20;35.62;31.09
68274;SHT30;55104;47.356;19.448;2022-08-19T10:26:28;35.92;31.75
68274;SHT30;55104;47.356;19.448;2022-08-19T10:29:31;36.16;30.82
68274;SHT30;55104;47.356;19.448;2022-08-19T10:32:34;36.51;31.12
68274;SHT30;55104;47.356;19.448;2022-08-19T10:35:37;36.62;29.99
68274;SHT30;55104;47.356;19.448;2022-08-19T10:39:00;36.37;29.65
68274;SHT30;55104;47.356;19.448;2022-08-19T10:42:05;36.60;29.96
68274;SHT30;55104;47.356;19.448;2022-08-19T10:45:08;36.99;29.78
68274;SHT30;55104;47.356;19.448;2022-08-19T10:48:11;37.06;29.57
68274;SHT30;55104;47.356;19.448;2022-08-19T10:51:21;36.97;28.75
68274;SHT30;55104;47.356;19.448;2022-08-19T10:54:49;36.88;28.84
68274;SHT30;55104;47.356;19.448;2022-08-19T10:58:15;36.82;28.73
68274;SHT30;55104;47.356;19.448;2022-08-19T11:01:17;37.00;29.06
68274;SHT30;55104;47.356;19.448;2022-08-19T11:04:20;37.30;29.12
68274;SHT30;55104;47.356;19.448;2022-08-19T11:07:29;37.27;28.31
68274;SHT30;55104;47.356;19.448;2022-08-19T11:10:31;36.90;28.53
68274;SHT30;55104;47.356;19.448;2022-08-19T11:13:37;37.27;28.79
68274;SHT30;55104;47.356;19.448;2022-08-19T11:16:40;37.53;28.26
68274;SHT30;55104;47.356;19.448;2022-08-19T11:19:43;37.86;28.62
68274;SHT30;55104;47.356;19.448;2022-08-19T11:22:45;37.71;28.30
68274;SHT30;55104;47.356;19.448;2022-08-19T11:25:49;37.77;28.94
68274;SHT30;55104;47.356;19.448;2022-08-19T11:28:51;37.95;29.05
68274;SHT30;55104;47.356;19.448;2022-08-19T11:31:57;38.19;28.75
68274;SHT30;55104;47.356;19.448;2022-08-19T11:34:59;38.39;27.67
68274;SHT30;55104;47.356;19.448;2022-08-19T11:38:01;38.40;27.97
68274;SHT30;55104;47.356;19.448;2022-08-19T11:41:09;38.41;28.21
68274;SHT30;55104;47.356;19.448;2022-08-19T11:44:11;38.41;28.01
68274;SHT30;55104;47.356;19.448;2022-08-19T11:47:15;38.72;27.85
68274;SHT30;55104;47.356;19.448;2022-08-19T11:50:21;38.61;27.79
68274;SHT30;55104;47.356;19.448;2022-08-19T11:53:23;38.40;27.63
68274;SHT30;55104;47.356;19.448;2022-08-19T11:56:32;38.41;27.52
68274;SHT30;55104;47.356;19.448;2022-08-19T11:59:34;38.20;27.56
68274;SHT30;55104;47.356;19.448;2022-08-19T12:02:38;38.30;27.64
68274;SHT30;55104;47.356;19.448;2022-08-19T12:05:41;38.27;27.79
68274;SHT30;55104;47.356;19.448;2022-08-19T12:08:44;38.23;27.54
68274;SHT30;55104;47.356;19.448;2022-08-19T12:11:46;38.30;28.13
68274;SHT30;55104;47.356;19.448;2022-08-19T12:14:48;38.46;27.85
68274;SHT30;55104;47.356;19.448;2022-08-19T12:17:52;38.50;27.94
68274;SHT30;55104;47.356;19.448;2022-08-19T12:20:58;38.36;27.19
68274;SHT30;55104;47.356;19.448;2022-08-19T12:24:03;38.32;27.92
68274;SHT30;55104;47.356;19.448;2022-08-19T12:27:07;38.61;27.76
68274;SHT30;55104;47.356;19.448;2022-08-19T12:30:14;38.72;27.98
68274;SHT30;55104;47.356;19.448;2022-08-19T12:33:17;38.41;26.95
68274;SHT30;55104;47.356;19.448;2022-08-19T12:36:20;38.20;27.65
68274;SHT30;55104;47.356;19.448;2022-08-19T12:39:24;37.95;27.99
68274;SHT30;55104;47.356;19.448;2022-08-19T12:42:26;37.44;27.87
68274;SHT30;55104;47.356;19.448;2022-08-19T12:45:28;37.33;28.99
68274;SHT30;55104;47.356;19.448;2022-08-19T12:48:34;37.23;29.29
68274;SHT30;55104;47.356;19.448;2022-08-19T12:51:36;37.33;28.79
68274;SHT30;55104;47.356;19.448;2022-08-19T12:54:38;37.17;27.21
68274;SHT30;55104;47.356;19.448;2022-08-19T12:57:40;37.48;28.21
68274;SHT30;55104;47.356;19.448;2022-08-19T13:00:44;37.58;28.04
68274;SHT30;55104;47.356;19.448;2022-08-19T13:03:46;37.78;29.22
68274;SHT30;55104;47.356;19.448;2022-08-19T13:06:52;38.06;27.37
68274;SHT30;55104;47.356;19.448;2022-08-19T13:09:55;38.24;28.07
68274;SHT30;55104;47.356;19.448;2022-08-19T13:12:59;38.23;27.99
68274;SHT30;55104;47.356;19.448;2022-08-19T13:16:03;38.30;27.60
68274;SHT30;55104;47.356;19.448;2022-08-19T13:19:05;38.29;27.63
68274;SHT30;55104;47.356;19.448;2022-08-19T13:22:08;38.08;27.00
68274;SHT30;55104;47.356;19.448;2022-08-19T13:25:16;37.74;26.99
68274;SHT30;55104;47.356;19.448;2022-08-19T13:28:19;37.98;27.02
68274;SHT30;55104;47.356;19.448;2022-08-19T13:31:32;38.05;27.29
68274;SHT30;55104;47.356;19.448;2022-08-19T13:34:53;38.43;27.01
68274;SHT30;55104;47.356;19.448;2022-08-19T13:37:55;38.53;27.55
68274;SHT30;55104;47.356;19.448;2022-08-19T13:41:04;38.57;27.52
68274;SHT30;55104;47.356;19.448;2022-08-19T13:44:13;38.61;27.76
68274;SHT30;55104;47.356;19.448;2022-08-19T13:47:15;38.60;27.51
68274;SHT30;55104;47.356;19.448;2022-08-19T13:50:21;38.16;26.66
68274;SHT30;55104;47.356;19.448;2022-08-19T13:53:24;38.34;27.09
68274;SHT30;55104;47.356;19.448;2022-08-19T13:56:26;38.15;27.24
68274;SHT30;55104;47.356;19.448;2022-08-19T13:59:28;38.05;27.89
68274;SHT30;55104;47.356;19.448;2022-08-19T14:02:30;37.81;28.32
68274;SHT30;55104;47.356;19.448;2022-08-19T14:05:32;37.75;28.28
68274;SHT30;55104;47.356;19.448;2022-08-19T14:08:34;37.48;28.30
68274;SHT30;55104;47.356;19.448;2022-08-19T14:11:46;37.16;28.29
68274;SHT30;55104;47.356;19.448;2022-08-19T14:14:48;36.93;28.62
68274;SHT30;55104;47.356;19.448;2022-08-19T14:17:51;36.62;31.54
68274;SHT30;55104;47.356;19.448;2022-08-19T14:20:53;36.25;30.81
68274;SHT30;55104;47.356;19.448;2022-08-19T14:23:55;36.07;29.88
68274;SHT30;55104;47.356;19.448;2022-08-19T14:26:58;36.08;30.91
68274;SHT30;55104;47.356;19.448;2022-08-19T14:30:00;36.00;31.02
68274;SHT30;55104;47.356;19.448;2022-08-19T14:33:04;35.79;30.86
68274;SHT30;55104;47.356;19.448;2022-08-19T14:36:06;35.82;31.29
68274;SHT30;55104;47.356;19.448;2022-08-19T14:39:09;36.10;32.11
68274;SHT30;55104;47.356;19.448;2022-08-19T14:42:11;36.51;32.13
68274;SHT30;55104;47.356;19.448;2022-08-19T14:45:15;36.67;32.42
68274;SHT30;55104;47.356;19.448;2022-08-19T14:48:18;36.60;33.88
68274;SHT30;55104;47.356;19.448;2022-08-19T14:51:23;36.00;34.92
68274;SHT30;55104;47.356;19.448;2022-08-19T14:54:25;35.46;35.59
68274;SHT30;55104;47.356;19.448;2022-08-19T14:57:31;34.76;36.53
68274;SHT30;55104;47.356;19.448;2022-08-19T15:00:33;34.21;37.50
68274;SHT30;55104;47.356;19.448;2022-08-19T15:03:38;34.51;36.91
68274;SHT30;55104;47.356;19.448;2022-08-19T15:06:42;34.24;37.62
68274;SHT30;55104;47.356;19.448;2022-08-19T15:09:44;34.24;37.58
68274;SHT30;55104;47.356;19.448;2022-08-19T15:12:46;34.12;37.45
68274;SHT30;55104;47.356;19.448;2022-08-19T15:15:53;33.63;38.04
68274;SHT30;55104;47.356;19.448;2022-08-19T15:18:57;33.45;38.43
68274;SHT30;55104;47.356;19.448;2022-08-19T15:21:59;33.19;38.97
68274;SHT30;55104;47.356;19.448;2022-08-19T15:25:02;33.04;39.18
68274;SHT30;55104;47.356;19.448;2022-08-19T15:28:04;32.75;38.92
68274;SHT30;55104;47.356;19.448;2022-08-19T15:31:07;32.52;37.91
68274;SHT30;55104;47.356;19.448;2022-08-19T15:34:25;32.17;37.64
68274;SHT30;55104;47.356;19.448;2022-08-19T15:37:27;32.16;36.75
68274;SHT30;55104;47.356;19.448;2022-08-19T15:40:29;32.15;36.75
68274;SHT30;55104;47.356;19.448;2022-08-19T15:43:31;31.98;36.11
68274;SHT30;55104;47.356;19.448;2022-08-19T15:46:35;31.96;35.98
68274;SHT30;55104;47.356;19.448;2022-08-19T15:49:38;31.85;36.97
68274;SHT30;55104;47.356;19.448;2022-08-19T15:52:49;31.70;37.15
68274;SHT30;55104;47.356;19.448;2022-08-19T15:55:52;31.65;37.45
68274;SHT30;55104;47.356;19.448;2022-08-19T15:58:54;31.62;37.23
68274;SHT30;55104;47.356;19.448;2022-08-19T16:02:17;31.34;37.31
68274;SHT30;55104;47.356;19.448;2022-08-19T16:05:38;31.29;37.76
68274;SHT30;55104;47.356;19.448;2022-08-19T16:09:01;31.12;37.88
68274;SHT30;55104;47.356;19.448;2022-08-19T16:12:04;31.04;38.30
68274;SHT30;55104;47.356;19.448;2022-08-19T16:15:08;30.95;38.65
68274;SHT30;55104;47.356;19.448;2022-08-19T16:18:14;30.82;39.31
68274;SHT30;55104;47.356;19.448;2022-08-19T16:21:16;30.71;39.41
68274;SHT30;55104;47.356;19.448;2022-08-19T16:24:25;30.58;39.37
68274;SHT30;55104;47.356;19.448;2022-08-19T16:27:27;30.47;39.82
68274;SHT30;55104;47.356;19.448;2022-08-19T16:30:29;30.45;40.04
68274;SHT30;55104;47.356;19.448;2022-08-19T16:33:31;30.35;40.41
68274;SHT30;55104;47.356;19.448;2022-08-19T16:36:34;30.37;40.29
68274;SHT30;55104;47.356;19.448;2022-08-19T16:39:38;30.30;40.28
68274;SHT30;55104;47.356;19.448;2022-08-19T16:42:40;30.16;40.46
68274;SHT30;55104;47.356;19.448;2022-08-19T16:45:42;30.13;40.56
68274;SHT30;55104;47.356;19.448;2022-08-19T16:48:44;30.09;40.47
68274;SHT30;55104;47.356;19.448;2022-08-19T16:51:47;30.03;40.61
68274;SHT30;55104;47.356;19.448;2022-08-19T16:54:49;29.97;40.54
68274;SHT30;55104;47.356;19.448;2022-08-19T16:57:51;29.99;40.42
68274;SHT30;55104;47.356;19.448;2022-08-19T17:00:55;29.96;40.78
68274;SHT30;55104;47.356;19.448;2022-08-19T17:04:04;29.93;40.26
68274;SHT30;55104;47.356;19.448;2022-08-19T17:07:08;29.93;40.36
68274;SHT30;55104;47.356;19.448;2022-08-19T17:10:11;29.89;39.72
68274;SHT30;55104;47.356;19.448;2022-08-19T17:13:13;29.85;39.68
68274;SHT30;55104;47.356;19.448;2022-08-19T17:16:17;29.79;39.46
68274;SHT30;55104;47.356;19.448;2022-08-19T17:19:20;29.80;39.36
68274;SHT30;55104;47.356;19.448;2022-08-19T17:22:22;29.75;39.35
68274;SHT30;55104;47.356;19.448;2022-08-19T17:25:27;29.76;39.33
68274;SHT30;55104;47.356;19.448;2022-08-19T17:28:29;29.68;39.26
68274;SHT30;55104;47.356;19.448;2022-08-19T17:31:31;29.62;39.22
68274;SHT30;55104;47.356;19.448;2022-08-19T17:34:34;29.59;39.19
68274;SHT30;55104;47.356;19.448;2022-08-19T17:37:36;29.48;39.31
68274;SHT30;55104;47.356;19.448;2022-08-19T17:40:38;29.44;39.40
68274;SHT30;55104;47.356;19.448;2022-08-19T17:43:43;29.35;39.30
68274;SHT30;55104;47.356;19.448;2022-08-19T17:46:46;29.35;39.32
68274;SHT30;55104;47.356;19.448;2022-08-19T17:49:48;29.27;39.34
68274;SHT30;55104;47.356;19.448;2022-08-19T17:52:50;29.25;39.35
68274;SHT30;55104;47.356;19.448;2022-08-19T17:55:53;29.20;39.45
68274;SHT30;55104;47.356;19.448;2022-08-19T17:58:55;29.13;39.66
68274;SHT30;55104;47.356;19.448;2022-08-19T18:02:03;29.11;39.54
68274;SHT30;55104;47.356;19.448;2022-08-19T18:05:05;29.14;39.50
68274;SHT30;55104;47.356;19.448;2022-08-19T18:08:07;29.08;39.72
68274;SHT30;55104;47.356;19.448;2022-08-19T18:11:11;29.07;39.91
68274;SHT30;55104;47.356;19.448;2022-08-19T18:14:14;29.04;39.93
68274;SHT30;55104;47.356;19.448;2022-08-19T18:17:16;29.00;39.80
68274;SHT30;55104;47.356;19.448;2022-08-19T18:20:20;29.00;39.94
68274;SHT30;55104;47.356;19.448;2022-08-19T18:23:24;28.95;40.72
68274;SHT30;55104;47.356;19.448;2022-08-19T18:26:45;28.90;40.54
68274;SHT30;55104;47.356;19.448;2022-08-19T18:29:47;28.92;40.56
68274;SHT30;55104;47.356;19.448;2022-08-19T18:32:51;28.90;40.91
68274;SHT30;55104;47.356;19.448;2022-08-19T18:35:53;28.89;41.79
68274;SHT30;55104;47.356;19.448;2022-08-19T18:38:55;28.47;44.15
68274;SHT30;55104;47.356;19.448;2022-08-19T18:42:17;28.22;45.08
68274;SHT30;55104;47.356;19.448;2022-08-19T18:45:39;27.96;46.43
68274;SHT30;55104;47.356;19.448;2022-08-19T18:49:00;27.79;46.85
68274;SHT30;55104;47.356;19.448;2022-08-19T18:52:06;27.73;47.12
68274;SHT30;55104;47.356;19.448;2022-08-19T18:55:08;27.66;46.66
68274;SHT30;55104;47.356;19.448;2022-08-19T18:58:10;27.73;46.56
68274;SHT30;55104;47.356;19.448;2022-08-19T19:01:18;27.72;46.32
68274;SHT30;55104;47.356;19.448;2022-08-19T19:04:29;27.70;46.12
68274;SHT30;55104;47.356;19.448;2022-08-19T19:07:34;27.73;45.78
68274;SHT30;55104;47.356;19.448;2022-08-19T19:10:36;27.79;45.20
68274;SHT30;55104;47.356;19.448;2022-08-19T19:13:38;27.86;44.90
68274;SHT30;55104;47.356;19.448;2022-08-19T19:16:42;27.85;45.05
68274;SHT30;55104;47.356;19.448;2022-08-19T19:19:47;27.76;45.29
68274;SHT30;55104;47.356;19.448;2022-08-19T19:22:49;27.67;45.70